Time;durP1;ratioP1;P1;durP2;ratioP2;P2;SDS_P1;SDS_P2;PMS_P1;PMS_P2;Temp;Humidity;BMP_temperature;BMP_pressure;BME280_temperature;BME280_humidity;BME280_pressure;Samples;Min_cycle;Max_cycle;Signal;HPM_P1;HPM_P2
2023/03/01 00:01:34;;;;;;;0.00;0.00;;;7.20;91.40;;;;;;5071355;28;19944;-79
2023/03/01 00:04:00;;;;;;;0.25;0.25;;;7.10;91.40;;;;;;5071290;28;20025;-79
2023/03/01 00:06:27;;;;;;;0.00;0.00;;;7.10;91.40;;;;;;5071331;28;20482;-78
2023/03/01 00:08:52;;;;;;;;;;;7.20;91.50;;;;;;5071533;28;20100;-78
2023/03/01 00:11:27;;;;;;;0.00;0.00;;;7.20;91.40;;;;;;5071116;28;20341;-79
2023/03/01 00:13:55;;;;;;;0.10;0.10;;;7.20;91.40;;;;;;5070967;28;20543;-78
2023/03/01 00:16:24;;;;;;;0.10;0.10;;;7.20;91.40;;;;;;5069623;28;20496;-78
2023/03/01 00:18:50;;;;;;;0.10;0.10;;;7.20;91.60;;;;;;5070848;28;20106;-78
2023/03/01 00:21:17;;;;;;;0.10;0.10;;;7.20;91.40;;;;;;5070897;28;20021;-79
2023/03/01 00:23:43;;;;;;;0.20;0.20;;;7.20;91.40;;;;;;5069613;28;20033;-79
2023/03/01 00:26:12;;;;;;;0.20;0.20;;;7.20;91.40;;;;;;5070887;28;20086;-78
2023/03/01 00:28:38;;;;;;;0.20;0.20;;;7.30;91.40;;;;;;5070671;28;20056;-79
2023/03/01 00:31:13;;;;;;;0.20;0.20;;;7.30;91.40;;;;;;5069761;28;20502;-78
2023/03/01 00:33:39;;;;;;;0.20;0.20;;;7.30;91.40;;;;;;5070440;28;20392;-78
2023/03/01 00:36:05;;;;;;;0.30;0.30;;;7.30;91.40;;;;;;5069612;28;20383;-78
2023/03/01 00:38:35;;;;;;;0.40;0.40;;;7.30;91.40;;;;;;5070493;28;20021;-78
2023/03/01 00:41:10;;;;;;;0.40;0.40;;;7.20;91.40;;;;;;5070427;28;20116;-79
2023/03/01 00:43:37;;;;;;;0.50;0.50;;;7.20;91.60;;;;;;5070806;28;20035;-78
2023/03/01 00:46:08;;;;;;;0.70;0.70;;;7.20;91.40;;;;;;5070523;28;20489;-79
2023/03/01 00:48:34;;;;;;;0.80;0.80;;;7.20;91.40;;;;;;5070314;28;20039;-79
2023/03/01 00:51:11;;;;;;;0.90;0.90;;;7.20;91.40;;;;;;5070601;28;20447;-79
2023/03/01 00:53:37;;;;;;;1.00;1.00;;;7.10;91.40;;;;;;5070378;28;20392;-78
2023/03/01 00:56:03;;;;;;;;;;;7.20;91.40;;;;;;5070834;28;20499;-79
2023/03/01 00:58:29;;;;;;;1.10;1.10;;;7.20;91.50;;;;;;5070012;28;19928;-79
2023/03/01 01:00:55;;;;;;;1.50;1.40;;;7.20;91.40;;;;;;5069035;28;20031;-78
2023/03/01 01:03:22;;;;;;;1.50;1.40;;;7.20;91.40;;;;;;5070171;28;20455;-79
2023/03/01 01:05:47;;;;;;;1.90;1.80;;;7.30;91.40;;;;;;5070258;28;20020;-79
2023/03/01 01:08:13;;;;;;;1.90;1.80;;;7.30;91.40;;;;;;5069780;28;20465;-78
2023/03/01 01:10:39;;;;;;;2.20;2.00;;;7.30;91.40;;;;;;5070111;28;20034;-79
2023/03/01 01:13:05;;;;;;;2.30;2.10;;;7.40;91.40;;;;;;5069915;28;20036;-79
2023/03/01 01:15:34;;;;;;;2.65;2.45;;;7.40;91.40;;;;;;5069729;28;20070;-78
2023/03/01 01:18:00;;;;;;;2.67;2.47;;;7.40;91.40;;;;;;5069904;28;20070;-78
2023/03/01 01:20:26;;;;;;;;;;;7.40;91.40;;;;;;5070243;28;20032;-78
2023/03/01 01:22:52;;;;;;;3.13;2.92;;;7.40;91.40;;;;;;5069793;28;19909;-78
2023/03/01 01:25:18;;;;;;;3.20;3.00;;;7.50;91.40;;;;;;5069751;28;20666;-79
2023/03/01 01:27:44;;;;;;;3.63;3.33;;;7.50;91.40;;;;;;5069762;28;20433;-79
2023/03/01 01:30:10;;;;;;;4.20;3.80;;;7.50;91.40;;;;;;5051810;28;20044;-79
2023/03/01 01:32:36;;;;;;;3.70;3.40;;;7.50;91.40;;;;;;5068171;28;20075;-78
2023/03/01 01:35:02;;;;;;;4.20;3.90;;;7.60;91.40;;;;;;5069640;28;20075;-79
2023/03/01 01:37:30;;;;;;;4.10;3.80;;;7.60;91.40;;;;;;5069756;28;20544;-79
2023/03/01 01:40:00;;;;;;;4.32;4.03;;;7.60;91.40;;;;;;5069452;28;20020;-79
2023/03/01 01:42:27;;;;;;;5.00;4.70;;;7.60;91.40;;;;;;5069366;28;20031;-79
2023/03/01 01:45:23;;;;;;;4.85;4.55;;;7.60;91.40;;;;;;5069383;28;20383;-78
2023/03/01 01:47:50;;;;;;;4.65;4.35;;;7.70;91.40;;;;;;5069379;28;20030;-78
2023/03/01 01:50:18;;;;;;;4.90;4.60;;;7.70;91.40;;;;;;5069277;28;20025;-79
2023/03/01 01:52:46;;;;;;;3.33;3.10;;;7.70;91.40;;;;;;5069047;28;20373;-79
2023/03/01 01:55:16;;;;;;;3.00;2.80;;;7.80;91.40;;;;;;5067933;28;20104;-79
2023/03/01 01:57:46;;;;;;;2.70;2.50;;;7.80;91.40;;;;;;5069140;28;20069;-79
2023/03/01 02:00:17;;;;;;;2.50;2.30;;;7.90;91.40;;;;;;5068931;28;20031;-78
2023/03/01 02:02:44;;;;;;;2.20;2.00;;;7.90;91.40;;;;;;5068944;28;20107;-79
2023/03/01 02:05:26;;;;;;;1.95;1.85;;;7.90;91.40;;;;;;5067704;28;20040;-78
2023/03/01 02:07:52;;;;;;;1.88;1.77;;;7.90;91.40;;;;;;5068854;28;20488;-78
2023/03/01 02:10:18;;;;;;;;;;;7.90;91.50;;;;;;5069293;28;20499;-78
2023/03/01 02:12:45;;;;;;;1.90;1.80;;;8.00;91.50;;;;;;5067425;28;19931;-78
2023/03/01 02:15:10;;;;;;;2.30;2.10;;;8.00;91.50;;;;;;5068570;28;20602;-78
2023/03/01 02:17:37;;;;;;;2.55;2.35;;;8.00;91.50;;;;;;5068755;28;20040;-79
2023/03/01 02:20:29;;;;;;;2.40;2.20;;;8.00;91.40;;;;;;5067622;28;20037;-78
2023/03/01 02:22:55;;;;;;;2.40;2.20;;;8.10;91.50;;;;;;5068706;28;20044;-78
2023/03/01 02:25:33;;;;;;;2.42;2.22;;;8.10;91.40;;;;;;5067240;28;20029;-79
2023/03/01 02:28:10;;;;;;;2.08;1.90;;;8.10;91.40;;;;;;5068641;28;20032;-79
2023/03/01 02:30:36;;;;;;;2.20;2.00;;;8.10;91.40;;;;;;5068358;28;20023;-78
2023/03/01 02:33:04;;;;;;;1.70;1.60;;;8.10;91.40;;;;;;5068432;28;20488;-77
2023/03/01 02:35:37;;;;;;;1.55;1.45;;;8.10;91.40;;;;;;5068285;28;20104;-78
2023/03/01 02:38:06;;;;;;;1.40;1.30;;;8.10;91.40;;;;;;5068311;28;20029;-78
2023/03/01 02:40:34;;;;;;;1.50;1.40;;;8.10;91.40;;;;;;5068202;28;20610;-77
2023/03/01 02:43:00;;;;;;;1.40;1.30;;;8.10;91.40;;;;;;5068169;28;20039;-77
2023/03/01 02:45:27;;;;;;;1.40;1.30;;;8.10;91.40;;;;;;5068126;28;20028;-78
2023/03/01 02:47:57;;;;;;;1.00;1.00;;;8.10;91.40;;;;;;5068105;28;20024;-77
2023/03/01 02:50:28;;;;;;;1.00;1.00;;;8.10;91.40;;;;;;5068070;28;20109;-78
2023/03/01 02:53:03;;;;;;;1.10;1.10;;;8.10;91.40;;;;;;5068066;28;20129;-78
2023/03/01 02:55:28;;;;;;;1.10;1.10;;;8.10;91.40;;;;;;5068037;28;20392;-77
2023/03/01 02:57:55;;;;;;;1.00;1.00;;;8.10;91.50;;;;;;5066723;28;20024;-77
2023/03/01 03:00:27;;;;;;;1.13;1.13;;;8.10;91.40;;;;;;5067853;28;20113;-77
2023/03/01 03:02:53;;;;;;;1.00;1.00;;;8.10;91.40;;;;;;5067909;28;20042;-78
2023/03/01 03:05:25;;;;;;;1.10;1.10;;;8.10;91.40;;;;;;5067859;28;20028;-78
2023/03/01 03:07:51;;;;;;;1.10;1.10;;;8.10;91.40;;;;;;5067940;28;20480;-78
2023/03/01 03:10:22;;;;;;;;;;;8.10;91.40;;;;;;5066784;28;20438;-77
2023/03/01 03:12:54;;;;;;;1.00;1.00;;;8.00;91.40;;;;;;5067723;28;19908;-76
2023/03/01 03:15:20;;;;;;;1.10;1.10;;;8.00;91.40;;;;;;5067585;28;20078;-77
2023/03/01 03:17:46;;;;;;;1.10;1.10;;;8.10;91.40;;;;;;5066514;28;20025;-78
2023/03/01 03:20:18;;;;;;;1.00;1.00;;;8.10;91.40;;;;;;5067687;28;20025;-77
2023/03/01 03:22:45;;;;;;;0.90;0.90;;;8.10;91.40;;;;;;5067772;28;20126;-77
2023/03/01 03:25:11;;;;;;;0.88;0.88;;;8.10;91.40;;;;;;5067725;28;20439;-77
2023/03/01 03:27:42;;;;;;;1.00;1.00;;;8.10;91.40;;;;;;5067602;28;20539;-77
2023/03/01 03:30:11;;;;;;;0.90;0.90;;;8.10;91.40;;;;;;5067457;28;20037;-78
2023/03/01 03:32:38;;;;;;;0.70;0.70;;;8.10;91.50;;;;;;5067519;28;20042;-78
2023/03/01 03:35:09;;;;;;;0.70;0.70;;;8.10;91.40;;;;;;5067525;28;20023;-77
2023/03/01 03:40:22;;;;;;;0.70;0.70;;;8.20;91.40;;;;;;5067652;28;20095;-77
2023/03/01 03:42:48;;;;;;;0.70;0.70;;;8.10;91.60;;;;;;5066358;28;20058;-78
2023/03/01 03:45:15;;;;;;;0.60;0.60;;;8.10;91.40;;;;;;5067418;28;20041;-77
2023/03/01 03:47:43;;;;;;;0.60;0.60;;;8.10;91.40;;;;;;5067363;28;20060;-77
2023/03/01 03:50:12;;;;;;;0.70;0.70;;;8.10;91.40;;;;;;5067341;28;20541;-77
2023/03/01 03:52:38;;;;;;;0.80;0.80;;;8.10;91.40;;;;;;5067149;28;20403;-77
2023/03/01 03:55:10;;;;;;;0.80;0.80;;;8.10;91.40;;;;;;5067196;28;20020;-78
2023/03/01 03:57:40;;;;;;;0.90;0.90;;;8.10;91.40;;;;;;5067295;28;20112;-78
2023/03/01 04:00:12;;;;;;;0.90;0.90;;;8.10;91.40;;;;;;5067168;28;20411;-78
2023/03/01 04:02:42;;;;;;;0.90;0.90;;;8.10;91.40;;;;;;5067258;28;20028;-78
2023/03/01 04:05:10;;;;;;;1.00;1.00;;;8.10;91.40;;;;;;5067202;28;20044;-78
2023/03/01 04:07:37;;;;;;;1.00;1.00;;;8.10;91.40;;;;;;5067193;28;20067;-78
2023/03/01 04:10:06;;;;;;;1.00;1.00;;;8.00;91.40;;;;;;5067128;28;20033;-78
2023/03/01 04:12:33;;;;;;;0.90;0.90;;;8.00;91.40;;;;;;5065728;28;20115;-78
2023/03/01 04:15:00;;;;;;;0.90;0.90;;;8.00;91.40;;;;;;5067086;28;20079;-78
2023/03/01 04:17:25;;;;;;;;;;;8.00;91.40;;;;;;5067450;28;20032;-78
2023/03/01 04:19:51;;;;;;;0.90;0.90;;;8.00;91.40;;;;;;5066959;28;20402;-78
2023/03/01 04:22:18;;;;;;;0.90;0.90;;;8.00;91.40;;;;;;5065693;28;20033;-78
2023/03/01 04:24:46;;;;;;;0.80;0.80;;;7.90;91.40;;;;;;5067022;28;20419;-78
2023/03/01 04:27:12;;;;;;;0.80;0.80;;;7.90;91.40;;;;;;5067006;28;20033;-78
2023/03/01 04:29:38;;;;;;;0.80;0.80;;;7.80;91.40;;;;;;5066937;28;20056;-78
2023/03/01 04:32:04;;;;;;;0.70;0.70;;;7.80;91.50;;;;;;5066875;28;20090;-78
2023/03/01 04:34:30;;;;;;;0.70;0.70;;;7.70;91.40;;;;;;5067023;28;20388;-78
2023/03/01 04:36:56;;;;;;;0.70;0.70;;;7.70;91.50;;;;;;5065867;28;20031;-78
2023/03/01 04:39:21;;;;;;;0.70;0.70;;;7.70;91.50;;;;;;5066877;28;20111;-78
2023/03/01 04:41:47;;;;;;;0.70;0.70;;;7.70;91.50;;;;;;5065958;28;20029;-78
2023/03/01 04:44:13;;;;;;;0.70;0.70;;;7.70;91.50;;;;;;5069108;28;20028;-78
2023/03/01 04:46:39;;;;;;;0.70;0.70;;;7.70;91.50;;;;;;5070442;28;20032;-78
2023/03/01 04:49:05;;;;;;;0.60;0.60;;;7.70;91.50;;;;;;5070209;28;20032;-78
2023/03/01 04:51:32;;;;;;;0.60;0.60;;;7.80;91.50;;;;;;5070292;28;20099;-78
2023/03/01 04:53:58;;;;;;;0.60;0.60;;;7.80;91.50;;;;;;5070110;28;20043;-78
2023/03/01 04:56:24;;;;;;;0.60;0.60;;;7.80;91.40;;;;;;5070218;28;20032;-78
2023/03/01 04:58:53;;;;;;;0.60;0.60;;;7.70;91.40;;;;;;5070182;28;20032;-78
2023/03/01 05:01:20;;;;;;;0.60;0.60;;;7.80;91.50;;;;;;5068854;28;20052;-78
2023/03/01 05:03:48;;;;;;;0.50;0.50;;;7.80;91.40;;;;;;5051928;28;20645;-78
2023/03/01 05:06:15;;;;;;;0.60;0.60;;;7.80;91.40;;;;;;5068680;28;20044;-77
2023/03/01 05:08:42;;;;;;;0.60;0.60;;;7.80;91.40;;;;;;5069755;28;20021;-78
2023/03/01 05:11:09;;;;;;;0.60;0.60;;;7.80;91.40;;;;;;5068696;28;20020;-78
2023/03/01 05:13:36;;;;;;;0.50;0.50;;;7.80;91.40;;;;;;5069978;28;20480;-78
2023/03/01 05:16:04;;;;;;;0.60;0.60;;;7.80;91.40;;;;;;5069718;28;20060;-78
2023/03/01 05:18:33;;;;;;;0.98;0.60;;;7.80;91.40;;;;;;5068480;28;20377;-78
2023/03/01 05:21:19;;;;;;;0.60;0.60;;;7.80;91.40;;;;;;5069909;28;20029;-78
2023/03/01 05:23:46;;;;;;;0.60;0.60;;;7.80;91.40;;;;;;5069659;28;20043;-78
2023/03/01 05:26:13;;;;;;;0.70;0.70;;;7.80;91.30;;;;;;5068324;28;20035;-78
2023/03/01 05:28:39;;;;;;;0.60;0.60;;;7.80;91.30;;;;;;5069630;28;20103;-78
2023/03/01 05:31:09;;;;;;;0.70;0.70;;;7.80;91.30;;;;;;5069679;28;20025;-78
2023/03/01 05:33:37;;;;;;;0.75;0.75;;;7.80;91.30;;;;;;5068530;28;20028;-78
2023/03/01 05:36:03;;;;;;;0.70;0.70;;;7.80;91.30;;;;;;5068454;28;20029;-78
2023/03/01 05:38:28;;;;;;;0.70;0.70;;;7.80;91.40;;;;;;5069586;28;20115;-78
2023/03/01 05:40:54;;;;;;;0.70;0.70;;;7.80;91.40;;;;;;5069471;28;20109;-78
2023/03/01 05:43:20;;;;;;;0.70;0.70;;;7.80;91.40;;;;;;5069436;28;20403;-78
2023/03/01 05:45:46;;;;;;;0.82;0.82;;;7.80;91.40;;;;;;5069259;28;20049;-78
2023/03/01 05:48:12;;;;;;;0.70;0.70;;;7.90;91.40;;;;;;5069384;28;20502;-78
2023/03/01 05:50:43;;;;;;;0.70;0.70;;;7.90;91.40;;;;;;5069239;28;20036;-78
2023/03/01 05:53:15;;;;;;;0.70;0.70;;;7.90;91.40;;;;;;5069248;28;20032;-78
2023/03/01 05:55:42;;;;;;;0.80;0.80;;;7.90;91.40;;;;;;5069149;28;20032;-78
2023/03/01 05:58:16;;;;;;;0.70;0.70;;;8.00;91.40;;;;;;5068982;28;20119;-77
2023/03/01 06:00:44;;;;;;;0.70;0.70;;;8.00;91.30;;;;;;5069307;28;20379;-78
2023/03/01 06:03:12;;;;;;;0.60;0.60;;;8.00;91.30;;;;;;5067870;28;20032;-78
2023/03/01 06:05:39;;;;;;;0.60;0.60;;;8.00;91.30;;;;;;5069366;28;20036;-78
2023/03/01 06:08:05;;;;;;;0.60;0.60;;;8.00;91.40;;;;;;5069090;28;20055;-78
2023/03/01 06:10:31;;;;;;;0.50;0.50;;;7.90;91.40;;;;;;5067909;28;20052;-78
2023/03/01 06:12:56;;;;;;;0.50;0.50;;;7.90;91.40;;;;;;5067318;28;20133;-78
2023/03/01 06:15:22;;;;;;;0.60;0.60;;;7.90;91.40;;;;;;5068466;28;20389;-79
2023/03/01 06:17:48;;;;;;;0.60;0.60;;;7.90;91.40;;;;;;5068555;28;20060;-78
2023/03/01 06:20:25;;;;;;;0.60;0.60;;;7.90;91.40;;;;;;5050758;28;20058;-77
2023/03/01 06:22:51;;;;;;;0.60;0.60;;;7.90;91.40;;;;;;5068803;28;20067;-77
2023/03/01 06:25:19;;;;;;;0.70;0.70;;;7.90;91.40;;;;;;5067371;28;20060;-77
2023/03/01 06:27:45;;;;;;;0.80;0.80;;;7.90;91.40;;;;;;5068565;28;20047;-77
2023/03/01 06:30:13;;;;;;;0.90;0.90;;;7.90;91.40;;;;;;5066947;28;20056;-77
2023/03/01 06:32:43;;;;;;;1.00;1.00;;;7.80;91.30;;;;;;5068358;28;20464;-78
2023/03/01 06:35:11;;;;;;;1.00;1.00;;;7.80;91.40;;;;;;5067086;28;20385;-78
2023/03/01 06:37:36;;;;;;;1.40;1.30;;;7.80;91.30;;;;;;5068153;28;20541;-78
2023/03/01 06:40:07;;;;;;;1.30;1.20;;;7.80;91.30;;;;;;5068199;28;20032;-77
2023/03/01 06:42:38;;;;;;;1.40;1.30;;;7.80;91.30;;;;;;5068470;28;20480;-78
2023/03/01 06:45:05;;;;;;;1.50;1.40;;;7.70;91.30;;;;;;5068159;28;20033;-78
2023/03/01 06:47:32;;;;;;;1.50;1.40;;;7.70;91.30;;;;;;5068091;28;20028;-78
2023/03/01 06:50:02;;;;;;;1.63;1.52;;;7.70;91.30;;;;;;5068134;28;20029;-78
2023/03/01 06:52:28;;;;;;;1.50;1.40;;;7.70;91.30;;;;;;5068030;28;20059;-77
2023/03/01 06:54:53;;;;;;;1.50;1.40;;;7.70;91.30;;;;;;5066766;28;20078;-77
2023/03/01 06:57:19;;;;;;;1.55;1.45;;;7.70;91.30;;;;;;5067762;28;20025;-77
2023/03/01 06:59:46;;;;;;;1.40;1.30;;;7.70;91.30;;;;;;5067505;28;20071;-78
2023/03/01 07:02:13;;;;;;;1.73;1.63;;;7.70;91.30;;;;;;5067731;28;20158;-77
2023/03/01 07:04:39;;;;;;;;;;;7.60;91.30;;;;;;5067647;28;20392;-77
2023/03/01 07:07:05;;;;;;;1.40;1.30;;;7.60;91.30;;;;;;5068242;28;19909;-78
2023/03/01 07:09:31;;;;;;;1.30;1.20;;;7.60;91.30;;;;;;5067645;28;20113;-78
2023/03/01 07:11:56;;;;;;;1.40;1.30;;;7.60;91.40;;;;;;5067398;28;20079;-78
2023/03/01 07:14:25;;;;;;;1.40;1.30;;;7.60;91.40;;;;;;5067312;28;20056;-78
2023/03/01 07:16:51;;;;;;;1.00;1.00;;;7.60;91.40;;;;;;5067584;28;20060;-78
2023/03/01 07:19:17;;;;;;;1.20;1.10;;;7.50;91.40;;;;;;5067547;28;20039;-78
2023/03/01 07:21:42;;;;;;;1.05;1.05;;;7.60;91.40;;;;;;5067571;28;20037;-78
2023/03/01 07:24:08;;;;;;;1.00;1.00;;;7.50;91.40;;;;;;5067580;28;20032;-78
2023/03/01 07:26:34;;;;;;;1.00;1.00;;;7.60;91.50;;;;;;5049658;28;20037;-78
2023/03/01 07:29:01;;;;;;;1.00;1.00;;;7.60;91.40;;;;;;5067090;28;20101;-78
2023/03/01 07:31:30;;;;;;;1.00;1.00;;;7.60;91.50;;;;;;5065653;28;20025;-78
2023/03/01 07:33:56;;;;;;;0.90;0.90;;;7.60;91.50;;;;;;5067288;28;20115;-79
2023/03/01 07:36:22;;;;;;;0.90;0.90;;;7.60;91.50;;;;;;5067750;28;20112;-78
2023/03/01 07:38:48;;;;;;;0.90;0.90;;;7.60;91.50;;;;;;5065460;28;20103;-78
2023/03/01 07:41:14;;;;;;;0.90;0.90;;;7.60;91.50;;;;;;5066911;28;20033;-78
2023/03/01 07:43:40;;;;;;;0.90;0.90;;;7.60;91.50;;;;;;5067497;28;20171;-77
2023/03/01 07:46:06;;;;;;;1.00;1.00;;;7.70;91.50;;;;;;5067284;28;20032;-77
2023/03/01 07:48:32;;;;;;;;;;;7.70;91.40;;;;;;5067642;28;20400;-76
2023/03/01 07:51:02;;;;;;;0.90;0.90;;;7.70;91.40;;;;;;5066944;28;19908;-77
2023/03/01 07:53:28;;;;;;;1.00;1.00;;;7.80;91.40;;;;;;5067054;28;20036;-77
2023/03/01 07:56:09;;;;;;;1.10;1.10;;;7.80;91.40;;;;;;5066947;28;20025;-77
2023/03/01 07:58:37;;;;;;;1.00;1.00;;;7.90;91.40;;;;;;5065460;28;20551;-77
2023/03/01 08:01:08;;;;;;;1.00;1.00;;;7.90;91.40;;;;;;5066555;28;20025;-78
2023/03/01 08:03:35;;;;;;;0.90;0.90;;;7.90;91.30;;;;;;5066611;28;20027;-78
2023/03/01 08:06:02;;;;;;;0.90;0.90;;;7.90;91.30;;;;;;5066865;28;20029;-77
2023/03/01 08:08:29;;;;;;;0.90;0.90;;;7.90;91.40;;;;;;5066507;28;20480;-75
2023/03/01 08:10:59;;;;;;;0.90;0.90;;;8.00;91.40;;;;;;5066783;28;20036;-78
2023/03/01 08:13:24;;;;;;;0.70;0.70;;;8.00;91.40;;;;;;5067529;28;20020;-79
2023/03/01 08:15:50;;;;;;;0.60;0.60;;;8.00;91.40;;;;;;5066669;28;20056;-77
2023/03/01 08:18:17;;;;;;;0.50;0.50;;;8.00;91.40;;;;;;5069338;28;20064;-77
2023/03/01 08:20:43;;;;;;;0.50;0.50;;;8.00;91.40;;;;;;5070515;28;20474;-77
2023/03/01 08:23:09;;;;;;;0.50;0.50;;;8.00;91.50;;;;;;5070658;28;20107;-77
2023/03/01 08:25:35;;;;;;;0.47;0.47;;;8.10;91.50;;;;;;5070556;28;20524;-78
2023/03/01 08:28:00;;;;;;;0.50;0.50;;;8.10;91.50;;;;;;5070877;28;20039;-77
2023/03/01 08:30:26;;;;;;;0.40;0.40;;;8.10;91.50;;;;;;5070235;28;20032;-78
2023/03/01 08:32:52;;;;;;;0.50;0.50;;;8.10;91.50;;;;;;5070947;28;20047;-78
2023/03/01 08:35:19;;;;;;;0.50;0.50;;;8.10;91.50;;;;;;5069781;28;20484;-78
2023/03/01 08:37:44;;;;;;;0.55;0.55;;;8.10;91.50;;;;;;5070337;28;20126;-79
2023/03/01 08:40:13;;;;;;;0.60;0.60;;;8.10;91.50;;;;;;5069997;28;20472;-79
2023/03/01 08:42:39;;;;;;;0.50;0.50;;;8.10;91.50;;;;;;5069209;28;20040;-79
2023/03/01 08:45:05;;;;;;;0.63;0.63;;;8.10;91.50;;;;;;5068202;28;20064;-76
2023/03/01 08:47:33;;;;;;;0.70;0.70;;;8.10;91.50;;;;;;5071315;28;20033;-76
2023/03/01 08:49:59;;;;;;;0.70;0.70;;;8.20;91.50;;;;;;5069285;28;20035;-77
2023/03/01 08:52:25;;;;;;;0.70;0.70;;;8.30;91.50;;;;;;5069443;28;20492;-78
2023/03/01 08:54:51;;;;;;;;;;;8.30;91.40;;;;;;5069898;28;20116;-77
2023/03/01 08:57:17;;;;;;;0.70;0.70;;;8.30;91.40;;;;;;5069581;28;20029;-77
2023/03/01 08:59:43;;;;;;;0.70;0.70;;;8.30;91.40;;;;;;5068187;28;20033;-78
2023/03/01 09:02:18;;;;;;;0.82;0.82;;;8.30;91.40;;;;;;5069875;28;20060;-77
2023/03/01 09:04:44;;;;;;;0.80;0.80;;;8.30;91.40;;;;;;5069631;28;20560;-78
2023/03/01 09:07:10;;;;;;;0.80;0.80;;;8.40;91.50;;;;;;5068618;28;20097;-78
2023/03/01 09:09:36;;;;;;;;;;;8.40;91.40;;;;;;5068098;28;20056;-77
2023/03/01 09:12:03;;;;;;;0.80;0.80;;;8.50;91.50;;;;;;5069172;28;20414;-78
2023/03/01 09:14:28;;;;;;;0.80;0.80;;;8.60;91.50;;;;;;5069056;28;20062;-78
2023/03/01 09:16:54;;;;;;;0.80;0.80;;;8.70;91.50;;;;;;5067942;28;20024;-78
2023/03/01 09:19:20;;;;;;;0.80;0.80;;;8.80;91.50;;;;;;5069488;28;20059;-78
2023/03/01 09:21:52;;;;;;;0.70;0.70;;;8.90;91.50;;;;;;5052297;28;20025;-78
2023/03/01 09:24:22;;;;;;;0.57;0.57;;;9.00;91.50;;;;;;5070943;28;20053;-69
2023/03/01 09:26:48;;;;;;;0.60;0.60;;;9.20;91.50;;;;;;5069316;28;20017;-78
2023/03/01 09:29:15;;;;;;;0.50;0.50;;;9.30;91.50;;;;;;5069049;28;20075;-78
2023/03/01 09:31:41;;;;;;;0.45;0.45;;;9.30;91.40;;;;;;5068989;28;20035;-78
2023/03/01 09:34:07;;;;;;;0.38;0.38;;;9.40;91.30;;;;;;5069303;28;20391;-78
2023/03/01 09:36:34;;;;;;;0.30;0.30;;;9.30;91.40;;;;;;5069017;28;20024;-74
2023/03/01 09:39:01;;;;;;;0.32;0.32;;;9.30;91.40;;;;;;5068296;28;20048;-78
2023/03/01 09:41:45;;;;;;;0.30;0.30;;;9.20;91.40;;;;;;5068158;28;20093;-78
2023/03/01 09:44:48;;;;;;;0.30;0.30;;;9.20;91.40;;;;;;5070379;28;20215;-78
2023/03/01 09:47:22;;;;;;;0.40;0.40;;;9.10;91.40;;;;;;5069650;28;20036;-78
2023/03/01 09:50:03;;;;;;;0.50;0.50;;;9.10;91.50;;;;;;5068512;28;20063;-78
2023/03/01 09:53:09;;;;;;;0.50;0.50;;;9.10;91.60;;;;;;5068343;28;20118;-79
2023/03/01 09:55:42;;;;;;;0.40;0.40;;;9.40;91.70;;;;;;5067241;28;20028;-79
2023/03/01 09:58:36;;;;;;;0.40;0.40;;;9.60;91.80;;;;;;5069627;28;20463;-78
2023/03/01 10:01:41;;;;;;;0.30;0.30;;;9.90;91.90;;;;;;5068356;28;20028;-79
2023/03/01 10:04:23;;;;;;;0.20;0.20;;;10.10;91.70;;;;;;5066156;28;20079;-74
2023/03/01 10:07:11;;;;;;;0.10;0.10;;;10.20;91.60;;;;;;5070639;28;20051;-78
2023/03/01 10:09:43;;;;;;;0.10;0.10;;;10.30;91.70;;;;;;5070662;28;20021;-78
2023/03/01 10:12:23;;;;;;;0.00;0.00;;;10.20;91.60;;;;;;5069270;28;20048;-78
2023/03/01 10:15:05;;;;;;;0.00;0.00;;;10.30;91.80;;;;;;5070152;28;20036;-78
2023/03/01 10:17:57;;;;;;;0.00;0.00;;;10.60;92.20;;;;;;5070245;28;20060;-77
2023/03/01 10:20:38;;;;;;;0.00;0.00;;;11.00;92.10;;;;;;5070325;28;20055;-78
2023/03/01 10:23:04;;;;;;;0.00;0.00;;;11.20;92.20;;;;;;5069578;28;20029;-78
2023/03/01 10:26:04;;;;;;;0.00;0.00;;;11.80;92.80;;;;;;5051709;28;20033;-78
2023/03/01 10:29:00;;;;;;;0.00;0.00;;;13.00;93.60;;;;;;5069349;28;20491;-78
2023/03/01 10:31:36;;;;;;;0.00;0.00;;;14.70;93.80;;;;;;5069897;28;20050;-78
2023/03/01 10:34:02;;;;;;;;;;;16.10;93.60;;;;;;5069545;28;20028;-78
2023/03/01 10:36:32;;;;;;;0.00;0.00;;;17.20;93.30;;;;;;5067748;28;19912;-78
2023/03/01 10:38:58;;;;;;;0.00;0.00;;;18.00;93.10;;;;;;5068878;28;20028;-78
2023/03/01 10:41:26;;;;;;;0.00;0.00;;;18.50;93.20;;;;;;5068589;28;20094;-78
2023/03/01 10:43:57;;;;;;;0.00;0.00;;;19.00;93.30;;;;;;5068838;28;20099;-79
2023/03/01 10:46:28;;;;;;;0.00;0.00;;;19.20;93.00;;;;;;5083785;28;20506;-78
2023/03/01 10:49:16;;;;;;;0.00;0.00;;;18.80;92.60;;;;;;5088518;28;20109;-79
2023/03/01 10:51:44;;;;;;;0.00;0.00;;;18.10;92.90;;;;;;5087882;28;20470;-79
2023/03/01 10:54:27;;;;;;;0.00;0.00;;;18.30;93.70;;;;;;5087797;28;20043;-79
2023/03/01 10:56:59;;;;;;;0.00;0.00;;;19.10;93.90;;;;;;5088496;28;20467;-79
2023/03/01 10:59:38;;;;;;;0.00;0.00;;;19.30;93.30;;;;;;5089177;28;20055;-79
2023/03/01 11:02:25;;;;;;;0.00;0.00;;;18.80;92.70;;;;;;5089925;28;20020;-81
2023/03/01 11:04:58;;;;;;;0.00;0.00;;;18.20;93.10;;;;;;5078643;28;20056;-82
2023/03/01 11:07:24;;;;;;;0.00;0.00;;;18.00;93.30;;;;;;5089704;28;20065;-82
2023/03/01 11:09:50;;;;;;;;;;;17.70;93.10;;;;;;5088640;28;20087;-79
2023/03/01 11:12:16;;;;;;;0.00;0.00;;;17.20;92.80;;;;;;5089322;28;19961;-80
2023/03/01 11:14:52;;;;;;;0.00;0.00;;;16.70;92.90;;;;;;5089684;28;20363;-77
2023/03/01 11:17:29;;;;;;;0.00;0.00;;;16.00;92.70;;;;;;5089276;28;20031;-80
2023/03/01 11:20:14;;;;;;;0.00;0.00;;;15.20;92.60;;;;;;5088324;28;20265;-71
2023/03/01 11:22:53;;;;;;;0.00;0.00;;;14.50;92.40;;;;;;5089829;28;20024;-81
2023/03/01 11:25:24;;;;;;;0.00;0.00;;;13.80;92.30;;;;;;5090013;28;20073;-82
2023/03/01 11:27:49;;;;;;;0.00;0.00;;;13.20;92.40;;;;;;5086436;28;20064;-78
2023/03/01 11:30:34;;;;;;;0.00;0.00;;;12.70;92.50;;;;;;5088790;28;20111;-77
2023/03/01 11:33:03;;;;;;;0.00;0.00;;;12.40;92.40;;;;;;5091234;28;20032;-81
2023/03/01 11:35:30;;;;;;;0.00;0.00;;;12.10;92.50;;;;;;5088901;28;20020;-81
2023/03/01 11:37:55;;;;;;;0.00;0.00;;;11.70;92.40;;;;;;5089891;28;20028;-78
2023/03/01 11:40:35;;;;;;;0.00;0.00;;;11.40;92.50;;;;;;5089372;28;20031;-84
2023/03/01 11:43:38;;;;;;;0.00;0.00;;;11.20;92.50;;;;;;5087655;28;20111;-80
2023/03/01 11:46:31;;;;;;;0.00;0.00;;;11.10;92.70;;;;;;5088029;28;20024;-80
2023/03/01 11:49:04;;;;;;;0.00;0.00;;;11.20;92.50;;;;;;5088781;28;20426;-75
2023/03/01 11:51:59;;;;;;;0.00;0.00;;;11.20;92.50;;;;;;5089788;28;20052;-74
2023/03/01 11:54:30;;;;;;;0.00;0.00;;;11.20;92.40;;;;;;5092033;28;20190;-75
2023/03/01 11:57:23;;;;;;;0.00;0.00;;;11.20;92.40;;;;;;5092352;28;20035;-74
2023/03/01 11:59:59;;;;;;;0.00;0.00;;;11.10;92.40;;;;;;5089231;28;20040;-78
2023/03/01 12:02:55;;;;;;;0.00;0.00;;;11.20;92.30;;;;;;5093356;28;20081;-84
2023/03/01 12:05:39;;;;;;;0.00;0.00;;;11.10;92.20;;;;;;5093208;28;20039;-82
2023/03/01 12:08:08;;;;;;;0.00;0.00;;;11.10;92.20;;;;;;5092840;28;20440;-81
2023/03/01 12:10:47;;;;;;;0.00;0.00;;;11.10;92.20;;;;;;5086764;28;20076;-71
2023/03/01 12:13:54;;;;;;;0.00;0.00;;;11.10;92.20;;;;;;5079906;28;20039;-73
2023/03/01 12:16:42;;;;;;;0.00;0.00;;;11.10;92.10;;;;;;5069819;28;20544;-72
2023/03/01 12:19:24;;;;;;;0.00;0.00;;;11.30;92.20;;;;;;5071318;28;20360;-71
2023/03/01 12:21:58;;;;;;;0.00;0.00;;;11.30;92.10;;;;;;5071372;28;20422;-71
2023/03/01 12:24:42;;;;;;;0.00;0.00;;;11.40;92.20;;;;;;5071297;28;20029;-73
2023/03/01 12:27:26;;;;;;;0.00;0.00;;;11.60;92.50;;;;;;5071203;28;20055;-73
2023/03/01 12:30:09;;;;;;;0.00;0.00;;;12.20;93.00;;;;;;5069569;28;20017;-72
2023/03/01 12:33:13;;;;;;;0.00;0.00;;;12.80;92.80;;;;;;5069410;28;20024;-72
2023/03/01 12:36:00;;;;;;;0.00;0.00;;;13.10;92.70;;;;;;5069513;28;20107;-73
2023/03/01 12:38:37;;;;;;;0.00;0.00;;;13.30;93.20;;;;;;5068877;28;20025;-74
2023/03/01 12:41:15;;;;;;;0.00;0.00;;;13.60;93.50;;;;;;5071040;28;20032;-73
2023/03/01 12:44:01;;;;;;;0.00;0.00;;;14.30;94.00;;;;;;5070581;28;20028;-72
2023/03/01 12:46:38;;;;;;;0.00;0.00;;;15.20;94.10;;;;;;5070991;28;20429;-72
2023/03/01 12:49:19;;;;;;;0.00;0.00;;;16.20;94.20;;;;;;5070697;28;20024;-72
2023/03/01 12:51:56;;;;;;;0.00;0.00;;;16.90;93.40;;;;;;5070376;28;20054;-74
2023/03/01 12:54:32;;;;;;;0.00;0.00;;;16.90;92.70;;;;;;5069054;28;20452;-71
2023/03/01 12:57:15;;;;;;;0.00;0.00;;;17.10;93.30;;;;;;5070328;28;20440;-71
2023/03/01 13:00:17;;;;;;;0.00;0.00;;;17.60;93.50;;;;;;5069795;28;20037;-71
2023/03/01 13:02:59;;;;;;;0.00;0.00;;;17.40;92.70;;;;;;5068083;28;20452;-71
2023/03/01 13:05:38;;;;;;;0.00;0.00;;;16.50;92.50;;;;;;5069967;28;20051;-70
2023/03/01 13:08:17;;;;;;;0.55;0.38;;;15.80;92.60;;;;;;5070087;28;20031;-73
2023/03/01 13:10:58;;;;;;;0.00;0.00;;;15.80;93.60;;;;;;5070252;28;20025;-74
2023/03/01 13:13:25;;;;;;;0.00;0.00;;;15.80;93.40;;;;;;5070378;28;20021;-72
2023/03/01 13:15:52;;;;;;;0.00;0.00;;;16.10;93.90;;;;;;5069748;28;20033;-75
2023/03/01 13:18:25;;;;;;;0.00;0.00;;;16.50;93.90;;;;;;5069326;28;20474;-73
2023/03/01 13:20:54;;;;;;;0.00;0.00;;;16.90;94.10;;;;;;5069823;28;20341;-71